x

South Brooks (46132) Wave Buoy

9:00 - Sat 18th Apr 2015 All times are PDT. -7 hours from GMT.

  • Sig Wave height 7.9ft
  • Peak Period 6s
  • Wind
    27mph, 31mph gusts
  • Sea Temp 51°f
  • Aire Temp 49°f
  • Sea Pressure 1026.9mb
  • South Brooks
  • South Brooks

More Historic Weather Station data

Upgrade to MSW Pro to gain access to the past 30 days of data for over 8000 Wavebouys and Weather Stations around the globe.

Join Pro

Comparision Forecast

View Surf forecast
   
sáb 04/18 9:00 8ft 6s 27 31 mph 1026.9mb 51f 49f
8:00 8ft 6s 27 31 mph 1027mb 51f 49f
7:00 8ft 6s 27 31 mph 1027.4mb 51f 50f
6:00  -   -  27
mph
- - -
5:00 8ft 10s 25 31 mph 1028.6mb 51f 50f
4:00  -   -  27
mph
- - -
3:00 7.5ft 11s 22 29 mph 1029.2mb 51f 50f
2:00 7.5ft 11s 22 27 mph 1029.6mb 51f 50f
1:00 7.5ft 11s 20 25 mph 1029.9mb 51f 50f
12:00 8ft 12s 22 27 mph 1029.7mb 51f 49f
11:00 8.5ft 12s 22 27 mph 1029.7mb 51f 49f
10:00 8.5ft 12s 27 31 mph 1029.8mb 51f 49f
9:00 9ft 12s 27 34 mph 1029.8mb 51f 49f
8:00 9ft 12s 27 31 mph 1029.9mb 51f 49f
7:00 9ft 12s 27 34 mph 1030.1mb 51f 48f
6:00 9ft 12s 29
mph
1029.6mb 51f 48f
5:00 9ft 12s 27 31 mph 1029.6mb 51f 48f
4:00 9ft 12s 25 31 mph 1029.6mb 51f 48f
3:00 9ft 11s 25 29 mph 1029.6mb 51f 48f
2:00 8.5ft 13s 25 29 mph 1029.7mb 51f 48f
1:00 8.5ft 12s 22 29 mph 1029.9mb 51f 49f
12:00 9ft 12s 25 31 mph 1030mb 51f 49f
vie 04/17 11:00 9.5ft 12s 25 29 mph 1030.3mb 51f 49f
10:00 10ft 14s 27 31 mph 1030.1mb 51f 49f
8:00 10ft 14s 27 34 mph 1029.4mb 51f 49f
7:00 10ft 14s 27 31 mph 1029.3mb 51f 49f
6:00 10ft 14s 25 31 mph 1029.4mb 51f 50f
5:00 10ft 14s 25 29 mph 1029.5mb 51f 49f
4:00 11ft 14s 22 27 mph 1029.7mb 51f 49f
3:00 10.5ft 15s 20 25 mph 1030mb 51f 49f
2:00 12ft 14s 20 25 mph 1030.2mb 51f 49f
1:00 11ft 14s 22 25 mph 1029.9mb 51f 49f
12:00 12ft 14s 22 27 mph 1029.6mb 51f 49f
11:00 11.5ft 14s 22 27 mph 1029mb 51f 49f
10:00 11.5ft 14s 22 27 mph 1028.5mb 51f 49f
7:00 12ft 14s 20 27 mph 1026.1mb 51f 49f
6:00  -   -  22
mph
1025.7mb - 49f
5:00 11.5ft 14s 22 27 mph 1025.1mb 51f 49f
4:00 10.5ft 14s 22 27 mph 1024.7mb 51f 49f
3:00 10.5ft 15s 22 27 mph 1023.9mb 51f 49f
2:00 11.5ft 16s 18 20 mph 1023.5mb 51f 51f
1:00 11ft 17s 16 20 mph 1023.6mb 51f 51f
12:00 12ft 17s 13 18 mph 1023.6mb 51f 51f
jue 04/16 11:00 12.5ft 14s 16 20 mph 1023.5mb 51f 51f
10:00 13ft 15s 13 18 mph 1024.3mb 51f 51f
9:00 15ft 16s 13 18 mph 1024.5mb 51f 51f
8:00 14.5ft 15s 13 16 mph 1024.7mb 51f 51f
7:00 15.5ft 14s 13 18 mph 1024.9mb 51f 51f
6:00 15ft 15s 16 18 mph 1025.4mb 51f 51f
5:00 15.5ft 16s 13 20 mph 1026mb 51f 51f
4:00 14ft 16s 13 18 mph 1026.5mb 51f 51f
3:00 15.5ft 16s 11 13 mph 1026.9mb 51f 51f
2:00 13.5ft 17s 13 16 mph 1027.3mb 51f 52f
1:00 14ft 15s 13 16 mph 1027.5mb 51f 51f
12:00 15ft 14s 13 18 mph 1027.6mb 51f 51f
11:00 14.5ft 17s 16 18 mph 1027.6mb 51f 51f
10:00 15ft 18s 13 18 mph 1027.6mb 51f 51f
9:00 15.5ft 17s 11 16 mph 1027.6mb 51f 51f
8:00 15ft 17s 13 16 mph 1027.5mb 51f 51f
7:00 15.5ft 17s 13 16 mph 1027.4mb 51f 51f
6:00 15ft 20s 13 18 mph 1027.4mb 51f 51f
5:00 15.5ft 20s 16 18 mph 1027.5mb 51f 51f
4:00 13.5ft 13s 13 18 mph 1027.7mb 51f 51f
3:00 12ft 12s 16 20 mph 1027.6mb 51f 51f
2:00 13ft 20s 18 20 mph 1027.8mb 51f 51f
1:00 12ft 12s 16 20 mph 1028mb 51f 51f
12:00 11ft 12s 18 20 mph 1028.1mb 51f 51f
mié 04/15 11:00 11ft 13s 18 22 mph 1027.9mb 51f 51f
10:00 12ft 12s 18 22 mph 1028mb 51f 51f
9:00 12ft 13s 18 20 mph 1028mb 51f 51f
8:00 12ft 12s 18 22 mph 1027.8mb 51f 51f
7:00 12ft 13s 18 22 mph 1028.2mb 51f 51f
6:00 12ft 13s 18 22 mph 1028.5mb 51f 51f
5:00 12ft 12s 20 25 mph 1029.1mb 51f 50f
4:00 11.5ft 11s 18 22 mph 1029.3mb 51f 50f
3:00 10ft 12s 22 29 mph 1029.3mb 51f 49f
2:00 10ft 11s 27 31 mph 1029.2mb 51f 49f
1:00 10ft 11s 22 27 mph 1029.6mb 51f 49f
12:00 10.5ft 10s 20 25 mph 1029.7mb 51f 49f
11:00 10ft 11s 20 27 mph 1029.3mb 51f 49f
10:00 9ft 10s 22 25 mph 1029.1mb 51f 49f
9:00 9ft 11s 20 25 mph 1029.1mb 51f 48f
8:00 9ft 12s 20 25 mph 1029.1mb 51f 49f
7:00 8.5ft 11s 22 27 mph 1028.7mb 51f 49f
6:00 8ft 11s 22 27 mph 1028.6mb 51f 49f